sensor_id;sensor_type;location;lat;lon;timestamp;temperature;humidity
12039;DHT22;6080;48.818;9.526;2023-04-15T03:02:00;2.70;99.90
12039;DHT22;6080;48.818;9.526;2023-04-15T03:04:26;2.70;99.90
12039;DHT22;6080;48.818;9.526;2023-04-15T03:06:54;2.70;99.90
12039;DHT22;6080;48.818;9.526;2023-04-15T03:09:21;2.80;99.90
12039;DHT22;6080;48.818;9.526;2023-04-15T03:11:47;2.80;99.90
12039;DHT22;6080;48.818;9.526;2023-04-15T03:14:13;2.90;99.90
12039;DHT22;6080;48.818;9.526;2023-04-15T03:16:38;2.90;99.90
12039;DHT22;6080;48.818;9.526;2023-04-15T03:19:04;3.00;99.90
12039;DHT22;6080;48.818;9.526;2023-04-15T03:21:30;3.00;99.90
12039;DHT22;6080;48.818;9.526;2023-04-15T03:23:56;3.00;99.90
12039;DHT22;6080;48.818;9.526;2023-04-15T03:26:26;3.00;99.90
12039;DHT22;6080;48.818;9.526;2023-04-15T03:28:52;3.10;99.90
12039;DHT22;6080;48.818;9.526;2023-04-15T03:31:18;3.10;99.90
12039;DHT22;6080;48.818;9.526;2023-04-15T03:33:43;3.10;99.90
12039;DHT22;6080;48.818;9.526;2023-04-15T03:36:09;3.20;99.90
12039;DHT22;6080;48.818;9.526;2023-04-15T03:38:35;3.20;99.90
12039;DHT22;6080;48.818;9.526;2023-04-15T03:41:01;3.20;99.90
12039;DHT22;6080;48.818;9.526;2023-04-15T03:43:26;3.20;99.90
12039;DHT22;6080;48.818;9.526;2023-04-15T03:45:52;3.10;99.90
12039;DHT22;6080;48.818;9.526;2023-04-15T03:48:18;3.10;99.90
12039;DHT22;6080;48.818;9.526;2023-04-15T03:50:44;3.10;99.90
12039;DHT22;6080;48.818;9.526;2023-04-15T03:53:10;3.10;99.90
12039;DHT22;6080;48.818;9.526;2023-04-15T03:55:36;3.10;99.90
12039;DHT22;6080;48.818;9.526;2023-04-15T03:58:02;3.10;99.90
12039;DHT22;6080;48.818;9.526;2023-04-15T04:00:28;3.10;99.90
12039;DHT22;6080;48.818;9.526;2023-04-15T04:02:54;3.10;99.90
12039;DHT22;6080;48.818;9.526;2023-04-15T04:05:19;3.00;99.90
12039;DHT22;6080;48.818;9.526;2023-04-15T04:07:45;3.00;99.90
12039;DHT22;6080;48.818;9.526;2023-04-15T04:10:12;2.90;99.90
12039;DHT22;6080;48.818;9.526;2023-04-15T04:12:38;2.90;99.90
12039;DHT22;6080;48.818;9.526;2023-04-15T04:15:04;2.90;99.90
12039;DHT22;6080;48.818;9.526;2023-04-15T04:17:30;2.80;99.90
12039;DHT22;6080;48.818;9.526;2023-04-15T04:19:55;2.70;99.90
12039;DHT22;6080;48.818;9.526;2023-04-15T04:22:22;2.70;99.90
12039;DHT22;6080;48.818;9.526;2023-04-15T04:24:48;2.70;99.90
12039;DHT22;6080;48.818;9.526;2023-04-15T04:27:15;2.60;99.90
12039;DHT22;6080;48.818;9.526;2023-04-15T04:29:41;2.60;99.90
12039;DHT22;6080;48.818;9.526;2023-04-15T04:32:07;2.50;99.90
12039;DHT22;6080;48.818;9.526;2023-04-15T04:34:33;2.40;99.90
12039;DHT22;6080;48.818;9.526;2023-04-15T04:36:59;2.40;99.90
12039;DHT22;6080;48.818;9.526;2023-04-15T04:39:25;2.30;99.90
12039;DHT22;6080;48.818;9.526;2023-04-15T04:41:51;2.30;99.90
12039;DHT22;6080;48.818;9.526;2023-04-15T04:44:17;2.30;99.90
12039;DHT22;6080;48.818;9.526;2023-04-15T04:46:43;2.30;99.90
12039;DHT22;6080;48.818;9.526;2023-04-15T04:49:08;2.30;99.90
12039;DHT22;6080;48.818;9.526;2023-04-15T04:51:35;2.40;99.90
12039;DHT22;6080;48.818;9.526;2023-04-15T04:54:01;2.30;99.90
12039;DHT22;6080;48.818;9.526;2023-04-15T04:56:27;2.30;99.90
12039;DHT22;6080;48.818;9.526;2023-04-15T04:58:53;2.20;99.90
12039;DHT22;6080;48.818;9.526;2023-04-15T05:01:18;2.20;99.90
12039;DHT22;6080;48.818;9.526;2023-04-15T05:03:44;2.20;99.90
12039;DHT22;6080;48.818;9.526;2023-04-15T05:06:10;2.30;99.90
12039;DHT22;6080;48.818;9.526;2023-04-15T05:08:36;2.30;99.90
12039;DHT22;6080;48.818;9.526;2023-04-15T05:11:02;2.40;99.90
12039;DHT22;6080;48.818;9.526;2023-04-15T05:13:29;2.50;99.90
12039;DHT22;6080;48.818;9.526;2023-04-15T05:15:55;2.60;99.90
12039;DHT22;6080;48.818;9.526;2023-04-15T05:18:21;2.60;99.90
12039;DHT22;6080;48.818;9.526;2023-04-15T05:20:47;2.60;99.90
12039;DHT22;6080;48.818;9.526;2023-04-15T05:23:15;2.60;99.90
12039;DHT22;6080;48.818;9.526;2023-04-15T05:25:41;2.60;99.90
12039;DHT22;6080;48.818;9.526;2023-04-15T05:28:06;2.60;99.90
12039;DHT22;6080;48.818;9.526;2023-04-15T05:30:32;2.70;99.90
12039;DHT22;6080;48.818;9.526;2023-04-15T05:32:58;2.80;99.90
12039;DHT22;6080;48.818;9.526;2023-04-15T05:35:24;2.90;99.90
12039;DHT22;6080;48.818;9.526;2023-04-15T05:37:50;3.10;99.90
12039;DHT22;6080;48.818;9.526;2023-04-15T05:40:16;3.20;99.90
12039;DHT22;6080;48.818;9.526;2023-04-15T05:42:41;3.40;99.90
12039;DHT22;6080;48.818;9.526;2023-04-15T05:45:07;3.60;99.90
12039;DHT22;6080;48.818;9.526;2023-04-15T05:47:36;3.80;99.90
12039;DHT22;6080;48.818;9.526;2023-04-15T05:50:03;4.20;99.90
12039;DHT22;6080;48.818;9.526;2023-04-15T05:52:30;4.60;99.90
12039;DHT22;6080;48.818;9.526;2023-04-15T05:54:55;5.20;99.90
12039;DHT22;6080;48.818;9.526;2023-04-15T05:57:21;5.70;99.90
12039;DHT22;6080;48.818;9.526;2023-04-15T05:59:48;6.30;99.90
12039;DHT22;6080;48.818;9.526;2023-04-15T06:02:14;7.00;99.90
12039;DHT22;6080;48.818;9.526;2023-04-15T06:04:39;7.60;99.90
12039;DHT22;6080;48.818;9.526;2023-04-15T06:07:05;7.90;99.90
12039;DHT22;6080;48.818;9.526;2023-04-15T06:09:31;8.10;99.90
12039;DHT22;6080;48.818;9.526;2023-04-15T06:11:58;8.00;99.90
12039;DHT22;6080;48.818;9.526;2023-04-15T06:14:23;8.20;99.90
12039;DHT22;6080;48.818;9.526;2023-04-15T06:16:49;8.00;99.90
12039;DHT22;6080;48.818;9.526;2023-04-15T06:19:15;7.90;99.90
12039;DHT22;6080;48.818;9.526;2023-04-15T06:21:41;8.40;99.90
12039;DHT22;6080;48.818;9.526;2023-04-15T06:24:07;8.90;99.90
12039;DHT22;6080;48.818;9.526;2023-04-15T06:26:33;9.80;99.90
12039;DHT22;6080;48.818;9.526;2023-04-15T06:28:58;10.50;99.90
12039;DHT22;6080;48.818;9.526;2023-04-15T06:31:24;11.00;99.90
12039;DHT22;6080;48.818;9.526;2023-04-15T06:33:50;11.70;99.90
12039;DHT22;6080;48.818;9.526;2023-04-15T06:36:16;12.40;99.90
12039;DHT22;6080;48.818;9.526;2023-04-15T06:38:42;12.80;99.90
12039;DHT22;6080;48.818;9.526;2023-04-15T06:41:07;12.80;99.90
12039;DHT22;6080;48.818;9.526;2023-04-15T06:43:33;12.70;99.90
12039;DHT22;6080;48.818;9.526;2023-04-15T06:45:59;12.60;99.90
12039;DHT22;6080;48.818;9.526;2023-04-15T06:48:25;12.10;99.90
12039;DHT22;6080;48.818;9.526;2023-04-15T06:50:52;11.90;99.90
12039;DHT22;6080;48.818;9.526;2023-04-15T06:53:17;11.40;99.90
12039;DHT22;6080;48.818;9.526;2023-04-15T06:55:43;10.80;99.90
12039;DHT22;6080;48.818;9.526;2023-04-15T06:58:09;10.70;99.90
12039;DHT22;6080;48.818;9.526;2023-04-15T07:00:35;10.50;99.90
12039;DHT22;6080;48.818;9.526;2023-04-15T07:03:03;10.30;99.90
12039;DHT22;6080;48.818;9.526;2023-04-15T07:05:29;10.30;99.90
12039;DHT22;6080;48.818;9.526;2023-04-15T07:07:57;10.20;99.90
12039;DHT22;6080;48.818;9.526;2023-04-15T07:10:22;10.00;99.90
12039;DHT22;6080;48.818;9.526;2023-04-15T07:12:48;9.90;99.90
12039;DHT22;6080;48.818;9.526;2023-04-15T07:15:15;9.90;99.90
12039;DHT22;6080;48.818;9.526;2023-04-15T07:17:41;9.90;99.90
12039;DHT22;6080;48.818;9.526;2023-04-15T07:20:10;9.70;99.90
12039;DHT22;6080;48.818;9.526;2023-04-15T07:22:38;9.80;99.90
12039;DHT22;6080;48.818;9.526;2023-04-15T07:25:05;10.10;99.90
12039;DHT22;6080;48.818;9.526;2023-04-15T07:27:31;10.30;99.90
12039;DHT22;6080;48.818;9.526;2023-04-15T07:29:57;10.60;99.90
12039;DHT22;6080;48.818;9.526;2023-04-15T07:32:22;10.80;99.90
12039;DHT22;6080;48.818;9.526;2023-04-15T07:34:48;11.40;99.90
12039;DHT22;6080;48.818;9.526;2023-04-15T07:37:14;12.00;99.90
12039;DHT22;6080;48.818;9.526;2023-04-15T07:39:40;12.30;99.90
12039;DHT22;6080;48.818;9.526;2023-04-15T07:42:06;12.40;99.90
12039;DHT22;6080;48.818;9.526;2023-04-15T07:44:32;12.40;99.90
12039;DHT22;6080;48.818;9.526;2023-04-15T07:46:57;12.60;99.90
12039;DHT22;6080;48.818;9.526;2023-04-15T07:49:23;12.60;99.90
12039;DHT22;6080;48.818;9.526;2023-04-15T07:51:49;12.80;99.90
12039;DHT22;6080;48.818;9.526;2023-04-15T07:54:15;13.10;99.90
12039;DHT22;6080;48.818;9.526;2023-04-15T07:56:41;13.30;99.90
12039;DHT22;6080;48.818;9.526;2023-04-15T07:59:07;13.00;99.90
12039;DHT22;6080;48.818;9.526;2023-04-15T08:01:34;13.50;99.90
12039;DHT22;6080;48.818;9.526;2023-04-15T08:04:01;14.10;99.90
12039;DHT22;6080;48.818;9.526;2023-04-15T08:06:27;14.90;99.90
12039;DHT22;6080;48.818;9.526;2023-04-15T08:08:53;15.30;99.90
12039;DHT22;6080;48.818;9.526;2023-04-15T08:11:20;15.70;99.90
12039;DHT22;6080;48.818;9.526;2023-04-15T08:13:46;16.00;99.90
12039;DHT22;6080;48.818;9.526;2023-04-15T08:16:16;16.40;98.20
12039;DHT22;6080;48.818;9.526;2023-04-15T08:18:43;16.40;96.90
12039;DHT22;6080;48.818;9.526;2023-04-15T08:21:09;16.50;97.30
12039;DHT22;6080;48.818;9.526;2023-04-15T08:23:35;16.70;95.30
12039;DHT22;6080;48.818;9.526;2023-04-15T08:26:02;16.00;95.40
12039;DHT22;6080;48.818;9.526;2023-04-15T08:28:28;16.50;95.20
12039;DHT22;6080;48.818;9.526;2023-04-15T08:30:53;17.00;95.00
12039;DHT22;6080;48.818;9.526;2023-04-15T08:33:20;17.40;94.10
12039;DHT22;6080;48.818;9.526;2023-04-15T08:35:45;17.70;92.70
12039;DHT22;6080;48.818;9.526;2023-04-15T08:38:11;17.40;92.30
12039;DHT22;6080;48.818;9.526;2023-04-15T08:40:42;17.00;93.20
12039;DHT22;6080;48.818;9.526;2023-04-15T08:43:12;16.40;94.20
12039;DHT22;6080;48.818;9.526;2023-04-15T08:45:40;16.00;95.00
12039;DHT22;6080;48.818;9.526;2023-04-15T08:48:07;16.10;94.80
12039;DHT22;6080;48.818;9.526;2023-04-15T08:50:34;16.10;95.20
12039;DHT22;6080;48.818;9.526;2023-04-15T08:53:00;15.80;95.90
12039;DHT22;6080;48.818;9.526;2023-04-15T08:55:29;15.70;96.00
12039;DHT22;6080;48.818;9.526;2023-04-15T08:57:58;15.90;95.10
12039;DHT22;6080;48.818;9.526;2023-04-15T09:00:24;16.30;95.70
12039;DHT22;6080;48.818;9.526;2023-04-15T09:02:51;16.50;95.80
12039;DHT22;6080;48.818;9.526;2023-04-15T09:05:17;16.50;95.40
12039;DHT22;6080;48.818;9.526;2023-04-15T09:07:43;16.90;95.20
12039;DHT22;6080;48.818;9.526;2023-04-15T09:10:09;17.00;95.20
12039;DHT22;6080;48.818;9.526;2023-04-15T09:12:35;17.30;94.80
12039;DHT22;6080;48.818;9.526;2023-04-15T09:15:02;17.40;95.00
12039;DHT22;6080;48.818;9.526;2023-04-15T09:17:28;17.10;94.40
12039;DHT22;6080;48.818;9.526;2023-04-15T09:20:10;16.60;94.60
12039;DHT22;6080;48.818;9.526;2023-04-15T09:22:38;16.70;95.10
12039;DHT22;6080;48.818;9.526;2023-04-15T09:25:24;17.10;95.00
12039;DHT22;6080;48.818;9.526;2023-04-15T09:28:01;17.10;93.40
12039;DHT22;6080;48.818;9.526;2023-04-15T09:30:27;16.90;92.90
12039;DHT22;6080;48.818;9.526;2023-04-15T09:32:54;16.10;94.30
12039;DHT22;6080;48.818;9.526;2023-04-15T09:35:21;15.60;94.50
12039;DHT22;6080;48.818;9.526;2023-04-15T09:37:48;15.80;94.90
12039;DHT22;6080;48.818;9.526;2023-04-15T09:40:14;15.90;93.80
12039;DHT22;6080;48.818;9.526;2023-04-15T09:42:56;15.90;95.30
12039;DHT22;6080;48.818;9.526;2023-04-15T09:45:22;16.00;94.70
12039;DHT22;6080;48.818;9.526;2023-04-15T09:47:48;16.40;94.50
12039;DHT22;6080;48.818;9.526;2023-04-15T09:50:16;17.50;95.00
12039;DHT22;6080;48.818;9.526;2023-04-15T09:52:42;17.90;91.50
12039;DHT22;6080;48.818;9.526;2023-04-15T09:55:09;17.80;91.20
12039;DHT22;6080;48.818;9.526;2023-04-15T09:57:36;18.00;91.30
12039;DHT22;6080;48.818;9.526;2023-04-15T10:00:03;17.60;90.10
12039;DHT22;6080;48.818;9.526;2023-04-15T10:02:30;17.60;90.60
12039;DHT22;6080;48.818;9.526;2023-04-15T10:04:56;17.40;91.30
12039;DHT22;6080;48.818;9.526;2023-04-15T10:07:23;17.60;91.00
12039;DHT22;6080;48.818;9.526;2023-04-15T10:09:50;17.60;91.50
12039;DHT22;6080;48.818;9.526;2023-04-15T10:12:17;17.50;90.80
12039;DHT22;6080;48.818;9.526;2023-04-15T10:14:43;17.10;92.50
12039;DHT22;6080;48.818;9.526;2023-04-15T10:17:10;17.00;91.60
12039;DHT22;6080;48.818;9.526;2023-04-15T10:19:37;17.10;93.70
12039;DHT22;6080;48.818;9.526;2023-04-15T10:22:03;17.10;92.90
12039;DHT22;6080;48.818;9.526;2023-04-15T10:24:33;17.10;92.30
12039;DHT22;6080;48.818;9.526;2023-04-15T10:26:59;17.00;91.50
12039;DHT22;6080;48.818;9.526;2023-04-15T10:29:28;17.20;91.10
12039;DHT22;6080;48.818;9.526;2023-04-15T10:31:55;17.40;91.40
12039;DHT22;6080;48.818;9.526;2023-04-15T10:34:22;17.10;92.30
12039;DHT22;6080;48.818;9.526;2023-04-15T10:36:49;16.60;93.10
12039;DHT22;6080;48.818;9.526;2023-04-15T10:44:31;16.40;93.80
12039;DHT22;6080;48.818;9.526;2023-04-15T10:46:57;16.50;92.50
12039;DHT22;6080;48.818;9.526;2023-04-15T10:49:24;16.60;92.50
12039;DHT22;6080;48.818;9.526;2023-04-15T10:51:52;16.40;90.60
12039;DHT22;6080;48.818;9.526;2023-04-15T10:59:35;17.10;88.40
12039;DHT22;6080;48.818;9.526;2023-04-15T11:02:02;17.00;85.50
12039;DHT22;6080;48.818;9.526;2023-04-15T11:04:52;17.00;87.20
12039;DHT22;6080;48.818;9.526;2023-04-15T11:12:39;16.90;86.30
12039;DHT22;6080;48.818;9.526;2023-04-15T11:15:28;16.90;87.50
12039;DHT22;6080;48.818;9.526;2023-04-15T11:17:58;16.80;87.90
12039;DHT22;6080;48.818;9.526;2023-04-15T11:20:24;16.60;88.10
12039;DHT22;6080;48.818;9.526;2023-04-15T11:22:52;16.20;88.20
12039;DHT22;6080;48.818;9.526;2023-04-15T11:25:37;15.90;88.80
12039;DHT22;6080;48.818;9.526;2023-04-15T11:28:04;15.70;90.10
12039;DHT22;6080;48.818;9.526;2023-04-15T11:30:32;15.60;90.60
12039;DHT22;6080;48.818;9.526;2023-04-15T11:33:02;15.50;90.80
12039;DHT22;6080;48.818;9.526;2023-04-15T11:35:28;15.40;90.50
12039;DHT22;6080;48.818;9.526;2023-04-15T11:37:54;15.40;90.60
12039;DHT22;6080;48.818;9.526;2023-04-15T11:40:25;15.70;91.10
12039;DHT22;6080;48.818;9.526;2023-04-15T11:43:15;16.10;91.90
12039;DHT22;6080;48.818;9.526;2023-04-15T11:45:52;16.60;90.60
12039;DHT22;6080;48.818;9.526;2023-04-15T11:48:20;16.80;88.40
12039;DHT22;6080;48.818;9.526;2023-04-15T11:51:02;16.90;87.10
12039;DHT22;6080;48.818;9.526;2023-04-15T11:53:45;17.00;87.00
12039;DHT22;6080;48.818;9.526;2023-04-15T11:56:22;17.30;88.60
12039;DHT22;6080;48.818;9.526;2023-04-15T11:58:52;17.30;86.90
12039;DHT22;6080;48.818;9.526;2023-04-15T12:01:18;16.90;88.00
12039;DHT22;6080;48.818;9.526;2023-04-15T12:03:46;16.40;88.60
12039;DHT22;6080;48.818;9.526;2023-04-15T12:06:20;16.40;89.10
12039;DHT22;6080;48.818;9.526;2023-04-15T12:11:14;16.70;88.40
12039;DHT22;6080;48.818;9.526;2023-04-15T12:13:44;16.30;89.00
12039;DHT22;6080;48.818;9.526;2023-04-15T12:16:10;15.70;90.90
12039;DHT22;6080;48.818;9.526;2023-04-15T12:18:37;15.50;92.70
12039;DHT22;6080;48.818;9.526;2023-04-15T12:21:09;15.60;92.70
12039;DHT22;6080;48.818;9.526;2023-04-15T12:23:37;15.70;91.60
12039;DHT22;6080;48.818;9.526;2023-04-15T12:26:06;15.50;90.00
12039;DHT22;6080;48.818;9.526;2023-04-15T12:28:33;15.50;88.20
12039;DHT22;6080;48.818;9.526;2023-04-15T12:31:11;15.50;83.50
12039;DHT22;6080;48.818;9.526;2023-04-15T12:33:38;15.40;82.30
12039;DHT22;6080;48.818;9.526;2023-04-15T12:36:04;15.40;84.00
12039;DHT22;6080;48.818;9.526;2023-04-15T12:38:30;15.10;87.50
12039;DHT22;6080;48.818;9.526;2023-04-15T12:40:57;14.80;87.30
12039;DHT22;6080;48.818;9.526;2023-04-15T12:43:23;14.50;85.80
12039;DHT22;6080;48.818;9.526;2023-04-15T12:45:49;14.20;89.60
12039;DHT22;6080;48.818;9.526;2023-04-15T12:48:15;13.60;90.90
12039;DHT22;6080;48.818;9.526;2023-04-15T12:50:40;13.20;90.70
12039;DHT22;6080;48.818;9.526;2023-04-15T12:53:06;13.00;92.50
12039;DHT22;6080;48.818;9.526;2023-04-15T12:55:32;12.80;90.50
12039;DHT22;6080;48.818;9.526;2023-04-15T12:57:57;12.80;88.50
12039;DHT22;6080;48.818;9.526;2023-04-15T13:00:23;12.90;84.90
12039;DHT22;6080;48.818;9.526;2023-04-15T13:02:49;13.00;85.50
12039;DHT22;6080;48.818;9.526;2023-04-15T13:05:15;13.10;87.20
12039;DHT22;6080;48.818;9.526;2023-04-15T13:07:41;13.10;82.90
12039;DHT22;6080;48.818;9.526;2023-04-15T13:10:07;13.00;83.10
12039;DHT22;6080;48.818;9.526;2023-04-15T13:12:33;13.00;83.00
12039;DHT22;6080;48.818;9.526;2023-04-15T13:15:05;12.90;83.00
12039;DHT22;6080;48.818;9.526;2023-04-15T13:17:31;12.80;88.30
12039;DHT22;6080;48.818;9.526;2023-04-15T13:19:56;12.90;90.80
12039;DHT22;6080;48.818;9.526;2023-04-15T13:22:22;12.90;90.40
12039;DHT22;6080;48.818;9.526;2023-04-15T13:24:48;12.90;88.10
12039;DHT22;6080;48.818;9.526;2023-04-15T13:27:14;13.00;88.00
12039;DHT22;6080;48.818;9.526;2023-04-15T13:29:39;13.10;87.90
12039;DHT22;6080;48.818;9.526;2023-04-15T13:32:05;13.20;86.10
12039;DHT22;6080;48.818;9.526;2023-04-15T13:34:31;13.30;86.70
12039;DHT22;6080;48.818;9.526;2023-04-15T13:36:57;13.30;80.90
12039;DHT22;6080;48.818;9.526;2023-04-15T13:39:23;13.10;83.50
12039;DHT22;6080;48.818;9.526;2023-04-15T13:41:48;13.00;85.20
12039;DHT22;6080;48.818;9.526;2023-04-15T13:44:14;13.00;85.40
12039;DHT22;6080;48.818;9.526;2023-04-15T13:46:40;13.20;86.70
12039;DHT22;6080;48.818;9.526;2023-04-15T13:49:07;13.00;84.60
12039;DHT22;6080;48.818;9.526;2023-04-15T13:51:32;12.70;84.80
12039;DHT22;6080;48.818;9.526;2023-04-15T13:54:01;12.50;86.60
12039;DHT22;6080;48.818;9.526;2023-04-15T13:56:28;12.50;87.50
12039;DHT22;6080;48.818;9.526;2023-04-15T13:58:53;12.60;87.00
12039;DHT22;6080;48.818;9.526;2023-04-15T14:01:24;12.70;87.80
12039;DHT22;6080;48.818;9.526;2023-04-15T14:03:49;12.80;87.90
12039;DHT22;6080;48.818;9.526;2023-04-15T14:06:15;13.00;87.90
12039;DHT22;6080;48.818;9.526;2023-04-15T14:08:41;13.10;85.90
12039;DHT22;6080;48.818;9.526;2023-04-15T14:11:07;13.10;86.60
12039;DHT22;6080;48.818;9.526;2023-04-15T14:42:45;12.80;89.60
12039;DHT22;6080;48.818;9.526;2023-04-15T14:45:11;12.70;90.60
12039;DHT22;6080;48.818;9.526;2023-04-15T14:47:37;12.60;91.00
12039;DHT22;6080;48.818;9.526;2023-04-15T14:50:03;12.60;91.40
12039;DHT22;6080;48.818;9.526;2023-04-15T14:52:32;12.50;92.50
12039;DHT22;6080;48.818;9.526;2023-04-15T14:55:09;12.60;92.40
12039;DHT22;6080;48.818;9.526;2023-04-15T14:57:39;12.60;92.70
12039;DHT22;6080;48.818;9.526;2023-04-15T15:00:07;12.60;93.40
12039;DHT22;6080;48.818;9.526;2023-04-15T15:02:33;12.80;94.10
12039;DHT22;6080;48.818;9.526;2023-04-15T15:05:00;12.90;94.20
12039;DHT22;6080;48.818;9.526;2023-04-15T15:07:26;13.00;94.10
12039;DHT22;6080;48.818;9.526;2023-04-15T15:09:52;13.00;93.70
12039;DHT22;6080;48.818;9.526;2023-04-15T15:12:18;12.90;93.10
12039;DHT22;6080;48.818;9.526;2023-04-15T15:14:44;13.00;93.80
12039;DHT22;6080;48.818;9.526;2023-04-15T15:17:10;13.00;93.90
12039;DHT22;6080;48.818;9.526;2023-04-15T15:19:36;13.00;93.80
12039;DHT22;6080;48.818;9.526;2023-04-15T15:22:02;12.90;93.60
12039;DHT22;6080;48.818;9.526;2023-04-15T15:24:28;12.70;93.50
12039;DHT22;6080;48.818;9.526;2023-04-15T15:26:54;12.50;94.10
12039;DHT22;6080;48.818;9.526;2023-04-15T15:29:20;12.40;94.70
12039;DHT22;6080;48.818;9.526;2023-04-15T15:31:46;12.40;95.60
12039;DHT22;6080;48.818;9.526;2023-04-15T15:34:11;12.40;96.50
12039;DHT22;6080;48.818;9.526;2023-04-15T15:36:37;12.40;95.80
12039;DHT22;6080;48.818;9.526;2023-04-15T15:39:03;12.40;95.80
12039;DHT22;6080;48.818;9.526;2023-04-15T15:41:29;12.30;96.00
12039;DHT22;6080;48.818;9.526;2023-04-15T15:43:55;12.20;96.40
12039;DHT22;6080;48.818;9.526;2023-04-15T15:46:20;12.20;96.90
12039;DHT22;6080;48.818;9.526;2023-04-15T15:48:48;12.10;97.50
12039;DHT22;6080;48.818;9.526;2023-04-15T15:51:14;12.00;98.70
12039;DHT22;6080;48.818;9.526;2023-04-15T15:53:40;12.00;99.10
12039;DHT22;6080;48.818;9.526;2023-04-15T15:56:05;12.00;99.90
12039;DHT22;6080;48.818;9.526;2023-04-15T15:58:32;12.00;99.90
12039;DHT22;6080;48.818;9.526;2023-04-15T16:00:59;11.90;99.90
12039;DHT22;6080;48.818;9.526;2023-04-15T16:03:25;11.80;99.90
12039;DHT22;6080;48.818;9.526;2023-04-15T16:05:50;11.80;99.90
12039;DHT22;6080;48.818;9.526;2023-04-15T16:08:16;11.70;99.90
12039;DHT22;6080;48.818;9.526;2023-04-15T16:10:42;11.50;99.90
12039;DHT22;6080;48.818;9.526;2023-04-15T16:13:10;11.30;99.90
12039;DHT22;6080;48.818;9.526;2023-04-15T16:15:36;11.00;99.90
12039;DHT22;6080;48.818;9.526;2023-04-15T16:18:02;10.70;99.90
12039;DHT22;6080;48.818;9.526;2023-04-15T16:20:28;10.40;99.90
12039;DHT22;6080;48.818;9.526;2023-04-15T16:22:57;10.10;99.90
12039;DHT22;6080;48.818;9.526;2023-04-15T16:25:23;10.00;99.90
12039;DHT22;6080;48.818;9.526;2023-04-15T16:27:49;9.80;99.90
12039;DHT22;6080;48.818;9.526;2023-04-15T16:30:15;9.70;99.90
12039;DHT22;6080;48.818;9.526;2023-04-15T16:32:41;9.60;99.90
12039;DHT22;6080;48.818;9.526;2023-04-15T16:35:07;9.60;99.90
12039;DHT22;6080;48.818;9.526;2023-04-15T16:37:33;9.70;99.90
12039;DHT22;6080;48.818;9.526;2023-04-15T16:40:01;9.50;99.90
12039;DHT22;6080;48.818;9.526;2023-04-15T16:42:28;9.40;99.90
12039;DHT22;6080;48.818;9.526;2023-04-15T16:44:54;9.40;99.90
12039;DHT22;6080;48.818;9.526;2023-04-15T16:47:21;9.40;99.90
12039;DHT22;6080;48.818;9.526;2023-04-15T16:49:47;9.30;99.90
12039;DHT22;6080;48.818;9.526;2023-04-15T16:52:12;9.40;99.90
12039;DHT22;6080;48.818;9.526;2023-04-15T16:54:38;9.40;99.90
12039;DHT22;6080;48.818;9.526;2023-04-15T16:57:09;9.30;99.90
12039;DHT22;6080;48.818;9.526;2023-04-15T16:59:34;9.30;99.90
12039;DHT22;6080;48.818;9.526;2023-04-15T17:02:00;9.30;99.90
12039;DHT22;6080;48.818;9.526;2023-04-15T17:04:27;9.20;99.90
12039;DHT22;6080;48.818;9.526;2023-04-15T17:06:53;9.10;99.90
12039;DHT22;6080;48.818;9.526;2023-04-15T17:09:18;9.10;99.90
12039;DHT22;6080;48.818;9.526;2023-04-15T17:11:44;9.00;99.90
12039;DHT22;6080;48.818;9.526;2023-04-15T17:14:10;9.00;99.90
12039;DHT22;6080;48.818;9.526;2023-04-15T17:16:39;8.90;99.90
12039;DHT22;6080;48.818;9.526;2023-04-15T17:19:08;8.90;99.90
12039;DHT22;6080;48.818;9.526;2023-04-15T17:21:34;8.80;99.90
12039;DHT22;6080;48.818;9.526;2023-04-15T17:24:00;8.80;99.90
12039;DHT22;6080;48.818;9.526;2023-04-15T17:26:26;8.80;99.90
12039;DHT22;6080;48.818;9.526;2023-04-15T17:28:52;8.80;99.90
12039;DHT22;6080;48.818;9.526;2023-04-15T17:31:17;8.80;99.90
12039;DHT22;6080;48.818;9.526;2023-04-15T17:33:43;8.80;99.90
12039;DHT22;6080;48.818;9.526;2023-04-15T17:36:10;8.80;99.90
12039;DHT22;6080;48.818;9.526;2023-04-15T17:38:36;8.70;99.90
12039;DHT22;6080;48.818;9.526;2023-04-15T17:41:01;8.70;99.90
12039;DHT22;6080;48.818;9.526;2023-04-15T17:43:27;8.70;99.90
12039;DHT22;6080;48.818;9.526;2023-04-15T17:45:53;8.60;99.90
12039;DHT22;6080;48.818;9.526;2023-04-15T17:48:19;8.50;99.90
12039;DHT22;6080;48.818;9.526;2023-04-15T17:50:45;8.50;99.90
12039;DHT22;6080;48.818;9.526;2023-04-15T17:53:10;8.50;99.90
12039;DHT22;6080;48.818;9.526;2023-04-15T17:55:36;8.40;99.90
12039;DHT22;6080;48.818;9.526;2023-04-15T17:58:02;8.40;99.90
12039;DHT22;6080;48.818;9.526;2023-04-15T18:00:28;8.30;99.90
12039;DHT22;6080;48.818;9.526;2023-04-15T18:02:53;8.30;99.90
12039;DHT22;6080;48.818;9.526;2023-04-15T18:05:20;8.20;99.90
12039;DHT22;6080;48.818;9.526;2023-04-15T18:07:45;8.20;99.90
12039;DHT22;6080;48.818;9.526;2023-04-15T18:10:11;8.10;99.90
12039;DHT22;6080;48.818;9.526;2023-04-15T18:12:37;8.10;99.90
12039;DHT22;6080;48.818;9.526;2023-04-15T18:15:03;8.10;99.90
12039;DHT22;6080;48.818;9.526;2023-04-15T18:17:29;8.10;99.90
12039;DHT22;6080;48.818;9.526;2023-04-15T18:19:55;8.10;99.90
12039;DHT22;6080;48.818;9.526;2023-04-15T18:22:21;8.10;99.90
12039;DHT22;6080;48.818;9.526;2023-04-15T18:24:46;8.00;99.90
12039;DHT22;6080;48.818;9.526;2023-04-15T18:27:15;7.90;99.90
12039;DHT22;6080;48.818;9.526;2023-04-15T18:29:41;8.00;99.90
12039;DHT22;6080;48.818;9.526;2023-04-15T18:32:09;7.90;99.90
12039;DHT22;6080;48.818;9.526;2023-04-15T18:34:35;7.90;99.90
12039;DHT22;6080;48.818;9.526;2023-04-15T18:37:01;7.90;99.90
12039;DHT22;6080;48.818;9.526;2023-04-15T18:39:27;7.80;99.90
12039;DHT22;6080;48.818;9.526;2023-04-15T18:41:53;7.90;99.90
12039;DHT22;6080;48.818;9.526;2023-04-15T18:44:19;7.90;99.90
12039;DHT22;6080;48.818;9.526;2023-04-15T18:46:46;7.90;99.90
12039;DHT22;6080;48.818;9.526;2023-04-15T18:49:12;7.80;99.90
12039;DHT22;6080;48.818;9.526;2023-04-15T18:51:38;7.90;99.90
12039;DHT22;6080;48.818;9.526;2023-04-15T18:54:04;7.90;99.90
12039;DHT22;6080;48.818;9.526;2023-04-15T18:56:30;7.90;99.90
12039;DHT22;6080;48.818;9.526;2023-04-15T18:58:56;7.90;99.90
12039;DHT22;6080;48.818;9.526;2023-04-15T19:01:22;7.90;99.90
12039;DHT22;6080;48.818;9.526;2023-04-15T19:03:48;8.00;99.90
12039;DHT22;6080;48.818;9.526;2023-04-15T19:06:15;8.00;99.90
12039;DHT22;6080;48.818;9.526;2023-04-15T19:08:41;7.90;99.90
12039;DHT22;6080;48.818;9.526;2023-04-15T19:11:07;7.90;99.90
12039;DHT22;6080;48.818;9.526;2023-04-15T19:13:33;7.90;99.90
12039;DHT22;6080;48.818;9.526;2023-04-15T19:15:59;8.00;99.90
12039;DHT22;6080;48.818;9.526;2023-04-15T19:18:25;8.00;99.90
12039;DHT22;6080;48.818;9.526;2023-04-15T19:20:52;8.00;99.90
12039;DHT22;6080;48.818;9.526;2023-04-15T19:23:20;8.10;99.90
12039;DHT22;6080;48.818;9.526;2023-04-15T19:25:46;8.10;99.90
12039;DHT22;6080;48.818;9.526;2023-04-15T19:28:12;8.10;99.90
12039;DHT22;6080;48.818;9.526;2023-04-15T19:30:39;8.10;99.90
12039;DHT22;6080;48.818;9.526;2023-04-15T19:33:05;8.10;99.90
12039;DHT22;6080;48.818;9.526;2023-04-15T19:35:32;8.10;99.90
12039;DHT22;6080;48.818;9.526;2023-04-15T19:37:58;8.10;99.90